Green Castle, Iowa
Current Conditions -  °F | °C
As of 7:35 AM on Saturday 20 Dec 2014 (Local Time) from KTNU Reporting Station
Haze Haze  
Wind Chill: 23°   Ceiling: 300
Heat Index: 30°   Visibility: 1mi
Dew Point: 30°   Wind: 8mph
Humidity: 100%   Direction: 160°SSE
Pressure: 30.18"   Gusts: NA
Location:  41.6475°N, 93.2926°W
Report Text: KTNU 201335Z AUTO 16007KT 1SM BR OVC003 M01/M01 A3018 RMK AO2
Loading
Personal Weather Stations






























Interactive Weather Map New forecast layout! Learn more

10-Day Weather Forecast

Advertisements
Track Severe Weather on mobile